sensor_id;sensor_type;location;lat;lon;timestamp;P1;durP1;ratioP1;P2;durP2;ratioP2
8088;SDS011;57635;49.194;12.104;2023-10-13T00:02:04;13.83;;;11.77;;
8088;SDS011;57635;49.194;12.104;2023-10-13T00:04:32;12.10;;;11.00;;
8088;SDS011;57635;49.194;12.104;2023-10-13T00:07:02;12.20;;;10.13;;
8088;SDS011;57635;49.194;12.104;2023-10-13T00:09:30;11.63;;;10.63;;
8088;SDS011;57635;49.194;12.104;2023-10-13T00:11:59;12.43;;;11.33;;
8088;SDS011;57635;49.194;12.104;2023-10-13T00:14:29;11.90;;;10.50;;
8088;SDS011;57635;49.194;12.104;2023-10-13T00:17:00;11.47;;;10.27;;
8088;SDS011;57635;49.194;12.104;2023-10-13T00:19:30;11.60;;;10.70;;
8088;SDS011;57635;49.194;12.104;2023-10-13T00:22:05;11.00;;;9.80;;
8088;SDS011;57635;49.194;12.104;2023-10-13T00:24:37;10.57;;;9.63;;
8088;SDS011;57635;49.194;12.104;2023-10-13T00:27:10;11.27;;;10.17;;
8088;SDS011;57635;49.194;12.104;2023-10-13T00:29:56;11.30;;;10.20;;
8088;SDS011;57635;49.194;12.104;2023-10-13T00:32:47;11.73;;;10.47;;
8088;SDS011;57635;49.194;12.104;2023-10-13T00:35:21;10.50;;;9.60;;
8088;SDS011;57635;49.194;12.104;2023-10-13T00:37:54;11.20;;;10.17;;
8088;SDS011;57635;49.194;12.104;2023-10-13T00:40:23;11.63;;;10.43;;
8088;SDS011;57635;49.194;12.104;2023-10-13T00:43:05;12.00;;;10.70;;
8088;SDS011;57635;49.194;12.104;2023-10-13T00:45:49;12.10;;;10.90;;
8088;SDS011;57635;49.194;12.104;2023-10-13T00:48:23;13.13;;;10.87;;
8088;SDS011;57635;49.194;12.104;2023-10-13T00:50:59;11.43;;;10.43;;
8088;SDS011;57635;49.194;12.104;2023-10-13T00:53:32;11.07;;;9.87;;
8088;SDS011;57635;49.194;12.104;2023-10-13T00:56:00;11.47;;;10.47;;
8088;SDS011;57635;49.194;12.104;2023-10-13T00:58:32;11.43;;;9.57;;
8088;SDS011;57635;49.194;12.104;2023-10-13T01:01:01;10.60;;;9.70;;
8088;SDS011;57635;49.194;12.104;2023-10-13T01:03:47;11.07;;;10.00;;
8088;SDS011;57635;49.194;12.104;2023-10-13T01:06:16;13.03;;;10.00;;
8088;SDS011;57635;49.194;12.104;2023-10-13T01:08:45;12.23;;;10.13;;
8088;SDS011;57635;49.194;12.104;2023-10-13T01:11:17;10.63;;;9.77;;
8088;SDS011;57635;49.194;12.104;2023-10-13T01:13:44;11.60;;;10.40;;
8088;SDS011;57635;49.194;12.104;2023-10-13T01:16:18;13.53;;;9.67;;
8088;SDS011;57635;49.194;12.104;2023-10-13T01:18:50;11.63;;;10.50;;
8088;SDS011;57635;49.194;12.104;2023-10-13T01:21:17;11.57;;;10.47;;
8088;SDS011;57635;49.194;12.104;2023-10-13T01:23:48;11.00;;;10.00;;
8088;SDS011;57635;49.194;12.104;2023-10-13T01:26:17;12.50;;;11.30;;
8088;SDS011;57635;49.194;12.104;2023-10-13T01:28:50;10.67;;;9.77;;
8088;SDS011;57635;49.194;12.104;2023-10-13T01:31:20;11.17;;;10.07;;
8088;SDS011;57635;49.194;12.104;2023-10-13T01:33:55;12.53;;;10.60;;
8088;SDS011;57635;49.194;12.104;2023-10-13T01:36:26;12.07;;;10.50;;
8088;SDS011;57635;49.194;12.104;2023-10-13T01:38:54;13.00;;;11.13;;
8088;SDS011;57635;49.194;12.104;2023-10-13T01:41:22;11.17;;;10.10;;
8088;SDS011;57635;49.194;12.104;2023-10-13T01:43:49;11.93;;;10.73;;
8088;SDS011;57635;49.194;12.104;2023-10-13T01:46:16;13.07;;;11.77;;
8088;SDS011;57635;49.194;12.104;2023-10-13T01:48:46;11.97;;;10.97;;
8088;SDS011;57635;49.194;12.104;2023-10-13T01:51:13;17.40;;;12.80;;
8088;SDS011;57635;49.194;12.104;2023-10-13T01:53:40;12.37;;;11.00;;
8088;SDS011;57635;49.194;12.104;2023-10-13T01:56:09;13.47;;;12.17;;
8088;SDS011;57635;49.194;12.104;2023-10-13T01:58:38;13.50;;;12.07;;
8088;SDS011;57635;49.194;12.104;2023-10-13T02:01:08;12.63;;;11.30;;
8088;SDS011;57635;49.194;12.104;2023-10-13T02:03:37;12.03;;;11.03;;
8088;SDS011;57635;49.194;12.104;2023-10-13T02:06:12;12.33;;;11.17;;
8088;SDS011;57635;49.194;12.104;2023-10-13T02:08:43;12.93;;;11.83;;
8088;SDS011;57635;49.194;12.104;2023-10-13T02:11:14;13.13;;;12.00;;
8088;SDS011;57635;49.194;12.104;2023-10-13T02:13:44;16.40;;;12.77;;
8088;SDS011;57635;49.194;12.104;2023-10-13T02:16:15;15.67;;;12.53;;
8088;SDS011;57635;49.194;12.104;2023-10-13T02:18:48;13.47;;;12.07;;
8088;SDS011;57635;49.194;12.104;2023-10-13T02:21:18;13.30;;;12.03;;
8088;SDS011;57635;49.194;12.104;2023-10-13T02:23:46;12.80;;;11.60;;
8088;SDS011;57635;49.194;12.104;2023-10-13T02:26:28;13.17;;;11.87;;
8088;SDS011;57635;49.194;12.104;2023-10-13T02:28:57;11.67;;;10.43;;
8088;SDS011;57635;49.194;12.104;2023-10-13T02:31:27;12.67;;;11.47;;
8088;SDS011;57635;49.194;12.104;2023-10-13T02:33:54;13.07;;;11.53;;
8088;SDS011;57635;49.194;12.104;2023-10-13T02:36:22;12.93;;;11.63;;
8088;SDS011;57635;49.194;12.104;2023-10-13T02:38:49;12.77;;;11.33;;
8088;SDS011;57635;49.194;12.104;2023-10-13T02:41:18;12.83;;;11.67;;
8088;SDS011;57635;49.194;12.104;2023-10-13T02:43:53;13.20;;;11.47;;
8088;SDS011;57635;49.194;12.104;2023-10-13T02:46:21;11.87;;;10.77;;
8088;SDS011;57635;49.194;12.104;2023-10-13T02:48:49;13.10;;;11.90;;
8088;SDS011;57635;49.194;12.104;2023-10-13T02:51:20;13.57;;;11.43;;
8088;SDS011;57635;49.194;12.104;2023-10-13T02:53:51;13.20;;;11.80;;
8088;SDS011;57635;49.194;12.104;2023-10-13T02:56:19;12.07;;;11.07;;
8088;SDS011;57635;49.194;12.104;2023-10-13T02:58:47;14.10;;;12.63;;
8088;SDS011;57635;49.194;12.104;2023-10-13T03:01:21;13.77;;;12.47;;
8088;SDS011;57635;49.194;12.104;2023-10-13T03:03:53;14.53;;;13.00;;
8088;SDS011;57635;49.194;12.104;2023-10-13T03:06:25;14.37;;;13.00;;
8088;SDS011;57635;49.194;12.104;2023-10-13T03:08:59;13.47;;;12.07;;
8088;SDS011;57635;49.194;12.104;2023-10-13T03:11:41;13.60;;;12.20;;
8088;SDS011;57635;49.194;12.104;2023-10-13T03:14:08;12.90;;;11.67;;
8088;SDS011;57635;49.194;12.104;2023-10-13T03:16:52;13.13;;;11.90;;
8088;SDS011;57635;49.194;12.104;2023-10-13T03:19:19;12.87;;;11.67;;
8088;SDS011;57635;49.194;12.104;2023-10-13T03:21:47;13.57;;;12.27;;
8088;SDS011;57635;49.194;12.104;2023-10-13T03:24:21;14.60;;;13.10;;
8088;SDS011;57635;49.194;12.104;2023-10-13T03:26:59;12.27;;;11.33;;
8088;SDS011;57635;49.194;12.104;2023-10-13T03:29:35;13.33;;;11.77;;
8088;SDS011;57635;49.194;12.104;2023-10-13T03:32:04;14.83;;;12.30;;
8088;SDS011;57635;49.194;12.104;2023-10-13T03:34:38;12.57;;;11.13;;
8088;SDS011;57635;49.194;12.104;2023-10-13T03:37:16;12.37;;;11.30;;
8088;SDS011;57635;49.194;12.104;2023-10-13T03:40:01;13.17;;;11.90;;
8088;SDS011;57635;49.194;12.104;2023-10-13T03:42:32;15.23;;;13.87;;
8088;SDS011;57635;49.194;12.104;2023-10-13T03:45:00;13.53;;;12.03;;
8088;SDS011;57635;49.194;12.104;2023-10-13T03:47:30;13.77;;;12.13;;
8088;SDS011;57635;49.194;12.104;2023-10-13T03:49:58;13.30;;;11.97;;
8088;SDS011;57635;49.194;12.104;2023-10-13T03:52:40;14.47;;;13.07;;
8088;SDS011;57635;49.194;12.104;2023-10-13T03:55:08;13.13;;;11.93;;
8088;SDS011;57635;49.194;12.104;2023-10-13T03:57:43;12.50;;;11.20;;
8088;SDS011;57635;49.194;12.104;2023-10-13T04:00:14;14.30;;;13.00;;
8088;SDS011;57635;49.194;12.104;2023-10-13T04:02:54;13.73;;;12.23;;
8088;SDS011;57635;49.194;12.104;2023-10-13T04:05:36;12.43;;;11.33;;
8088;SDS011;57635;49.194;12.104;2023-10-13T04:08:10;13.03;;;10.63;;
8088;SDS011;57635;49.194;12.104;2023-10-13T04:10:56;12.67;;;11.13;;
8088;SDS011;57635;49.194;12.104;2023-10-13T04:13:53;12.53;;;11.13;;
8088;SDS011;57635;49.194;12.104;2023-10-13T04:16:38;12.63;;;11.43;;
8088;SDS011;57635;49.194;12.104;2023-10-13T04:19:18;14.80;;;10.97;;
8088;SDS011;57635;49.194;12.104;2023-10-13T04:21:52;13.40;;;10.97;;
8088;SDS011;57635;49.194;12.104;2023-10-13T04:24:25;13.03;;;11.77;;
8088;SDS011;57635;49.194;12.104;2023-10-13T04:27:11;14.87;;;12.77;;
8088;SDS011;57635;49.194;12.104;2023-10-13T04:29:57;12.87;;;11.57;;
8088;SDS011;57635;49.194;12.104;2023-10-13T04:32:37;15.53;;;11.67;;
8088;SDS011;57635;49.194;12.104;2023-10-13T04:35:15;13.50;;;12.20;;
8088;SDS011;57635;49.194;12.104;2023-10-13T04:37:50;13.80;;;12.33;;
8088;SDS011;57635;49.194;12.104;2023-10-13T04:40:20;14.23;;;12.80;;
8088;SDS011;57635;49.194;12.104;2023-10-13T04:42:51;12.23;;;11.13;;
8088;SDS011;57635;49.194;12.104;2023-10-13T04:45:20;15.77;;;11.93;;
8088;SDS011;57635;49.194;12.104;2023-10-13T04:48:11;13.63;;;12.33;;
8088;SDS011;57635;49.194;12.104;2023-10-13T04:51:00;14.07;;;12.60;;
8088;SDS011;57635;49.194;12.104;2023-10-13T04:53:45;14.00;;;12.03;;
8088;SDS011;57635;49.194;12.104;2023-10-13T04:56:30;14.90;;;12.03;;
8088;SDS011;57635;49.194;12.104;2023-10-13T04:59:16;13.47;;;12.07;;
8088;SDS011;57635;49.194;12.104;2023-10-13T05:02:01;15.00;;;12.70;;
8088;SDS011;57635;49.194;12.104;2023-10-13T05:04:48;13.77;;;12.20;;
8088;SDS011;57635;49.194;12.104;2023-10-13T05:07:49;15.97;;;12.63;;
8088;SDS011;57635;49.194;12.104;2023-10-13T05:10:37;15.20;;;12.77;;
8088;SDS011;57635;49.194;12.104;2023-10-13T05:13:22;14.83;;;12.70;;
8088;SDS011;57635;49.194;12.104;2023-10-13T05:16:08;14.20;;;12.87;;
8088;SDS011;57635;49.194;12.104;2023-10-13T05:18:53;17.40;;;13.70;;
8088;SDS011;57635;49.194;12.104;2023-10-13T05:21:39;14.43;;;12.93;;
8088;SDS011;57635;49.194;12.104;2023-10-13T05:24:26;14.33;;;12.70;;
8088;SDS011;57635;49.194;12.104;2023-10-13T05:27:11;14.57;;;13.03;;
8088;SDS011;57635;49.194;12.104;2023-10-13T05:29:56;16.27;;;12.63;;
8088;SDS011;57635;49.194;12.104;2023-10-13T05:32:42;15.63;;;13.20;;
8088;SDS011;57635;49.194;12.104;2023-10-13T05:35:30;15.80;;;14.40;;
8088;SDS011;57635;49.194;12.104;2023-10-13T05:38:12;16.20;;;13.47;;
8088;SDS011;57635;49.194;12.104;2023-10-13T05:40:59;17.37;;;14.50;;
8088;SDS011;57635;49.194;12.104;2023-10-13T05:43:50;14.00;;;12.67;;
8088;SDS011;57635;49.194;12.104;2023-10-13T05:46:35;15.23;;;13.73;;
8088;SDS011;57635;49.194;12.104;2023-10-13T05:49:26;15.40;;;13.87;;
8088;SDS011;57635;49.194;12.104;2023-10-13T05:52:16;14.73;;;13.30;;
8088;SDS011;57635;49.194;12.104;2023-10-13T05:55:06;14.63;;;13.00;;
8088;SDS011;57635;49.194;12.104;2023-10-13T05:57:53;16.07;;;14.23;;
8088;SDS011;57635;49.194;12.104;2023-10-13T06:00:39;14.87;;;13.37;;
8088;SDS011;57635;49.194;12.104;2023-10-13T06:03:25;15.20;;;13.70;;
8088;SDS011;57635;49.194;12.104;2023-10-13T06:06:10;14.57;;;13.13;;
8088;SDS011;57635;49.194;12.104;2023-10-13T06:08:55;16.33;;;14.73;;
8088;SDS011;57635;49.194;12.104;2023-10-13T06:11:41;18.23;;;13.10;;
8088;SDS011;57635;49.194;12.104;2023-10-13T06:14:24;14.40;;;12.90;;
8088;SDS011;57635;49.194;12.104;2023-10-13T06:17:09;13.97;;;12.60;;
8088;SDS011;57635;49.194;12.104;2023-10-13T06:19:54;17.27;;;13.07;;
8088;SDS011;57635;49.194;12.104;2023-10-13T06:22:40;14.80;;;12.90;;
8088;SDS011;57635;49.194;12.104;2023-10-13T06:25:25;14.63;;;13.33;;
8088;SDS011;57635;49.194;12.104;2023-10-13T06:28:11;13.97;;;12.23;;
8088;SDS011;57635;49.194;12.104;2023-10-13T06:30:58;14.67;;;12.37;;
8088;SDS011;57635;49.194;12.104;2023-10-13T06:33:27;14.17;;;12.40;;
8088;SDS011;57635;49.194;12.104;2023-10-13T06:35:56;16.03;;;13.17;;
8088;SDS011;57635;49.194;12.104;2023-10-13T06:38:24;13.60;;;12.20;;
8088;SDS011;57635;49.194;12.104;2023-10-13T06:40:57;14.30;;;12.97;;
8088;SDS011;57635;49.194;12.104;2023-10-13T06:43:24;14.60;;;13.20;;
8088;SDS011;57635;49.194;12.104;2023-10-13T06:46:01;15.33;;;13.80;;
8088;SDS011;57635;49.194;12.104;2023-10-13T06:48:30;14.07;;;12.67;;
8088;SDS011;57635;49.194;12.104;2023-10-13T06:50:59;15.60;;;13.67;;
8088;SDS011;57635;49.194;12.104;2023-10-13T06:53:32;13.70;;;12.30;;
8088;SDS011;57635;49.194;12.104;2023-10-13T06:56:05;14.10;;;12.80;;
8088;SDS011;57635;49.194;12.104;2023-10-13T06:58:35;15.43;;;13.83;;
8088;SDS011;57635;49.194;12.104;2023-10-13T07:01:07;14.30;;;12.90;;
8088;SDS011;57635;49.194;12.104;2023-10-13T07:03:41;16.93;;;14.13;;
8088;SDS011;57635;49.194;12.104;2023-10-13T07:06:09;14.07;;;12.77;;
8088;SDS011;57635;49.194;12.104;2023-10-13T07:08:44;15.73;;;14.07;;
8088;SDS011;57635;49.194;12.104;2023-10-13T07:11:18;14.90;;;13.40;;
8088;SDS011;57635;49.194;12.104;2023-10-13T07:13:59;14.87;;;13.50;;
8088;SDS011;57635;49.194;12.104;2023-10-13T07:16:42;14.27;;;13.00;;
8088;SDS011;57635;49.194;12.104;2023-10-13T07:19:13;14.10;;;12.73;;
8088;SDS011;57635;49.194;12.104;2023-10-13T07:21:46;14.40;;;12.90;;
8088;SDS011;57635;49.194;12.104;2023-10-13T07:24:14;14.53;;;13.13;;
8088;SDS011;57635;49.194;12.104;2023-10-13T07:26:42;12.70;;;11.60;;
8088;SDS011;57635;49.194;12.104;2023-10-13T07:29:12;14.13;;;12.40;;
8088;SDS011;57635;49.194;12.104;2023-10-13T07:31:42;17.70;;;12.53;;
8088;SDS011;57635;49.194;12.104;2023-10-13T07:34:12;13.60;;;12.23;;
8088;SDS011;57635;49.194;12.104;2023-10-13T07:36:54;13.63;;;12.30;;
8088;SDS011;57635;49.194;12.104;2023-10-13T07:39:27;13.03;;;11.73;;
8088;SDS011;57635;49.194;12.104;2023-10-13T07:42:00;13.50;;;12.10;;
8088;SDS011;57635;49.194;12.104;2023-10-13T07:44:32;14.57;;;11.10;;
8088;SDS011;57635;49.194;12.104;2023-10-13T07:47:02;13.50;;;12.17;;
8088;SDS011;57635;49.194;12.104;2023-10-13T07:49:35;12.03;;;10.93;;
8088;SDS011;57635;49.194;12.104;2023-10-13T07:52:05;12.27;;;10.63;;
8088;SDS011;57635;49.194;12.104;2023-10-13T07:54:53;11.53;;;10.50;;
8088;SDS011;57635;49.194;12.104;2023-10-13T07:57:26;12.27;;;10.80;;
8088;SDS011;57635;49.194;12.104;2023-10-13T07:59:56;12.50;;;11.30;;
8088;SDS011;57635;49.194;12.104;2023-10-13T08:02:36;10.60;;;9.70;;
8088;SDS011;57635;49.194;12.104;2023-10-13T08:05:16;11.23;;;9.17;;
8088;SDS011;57635;49.194;12.104;2023-10-13T08:07:51;11.57;;;9.87;;
8088;SDS011;57635;49.194;12.104;2023-10-13T08:10:19;11.10;;;9.93;;
8088;SDS011;57635;49.194;12.104;2023-10-13T08:12:52;12.97;;;9.50;;
8088;SDS011;57635;49.194;12.104;2023-10-13T08:15:21;10.23;;;9.23;;
8088;SDS011;57635;49.194;12.104;2023-10-13T08:17:59;9.03;;;8.17;;
8088;SDS011;57635;49.194;12.104;2023-10-13T08:20:33;9.13;;;8.43;;
8088;SDS011;57635;49.194;12.104;2023-10-13T08:23:04;9.20;;;8.30;;
8088;SDS011;57635;49.194;12.104;2023-10-13T08:25:40;9.13;;;8.23;;
8088;SDS011;57635;49.194;12.104;2023-10-13T08:28:34;11.27;;;8.00;;
8088;SDS011;57635;49.194;12.104;2023-10-13T08:31:23;9.77;;;8.67;;
8088;SDS011;57635;49.194;12.104;2023-10-13T08:33:54;9.23;;;8.33;;
8088;SDS011;57635;49.194;12.104;2023-10-13T08:36:32;10.17;;;7.40;;
8088;SDS011;57635;49.194;12.104;2023-10-13T08:39:04;8.90;;;7.87;;
8088;SDS011;57635;49.194;12.104;2023-10-13T08:42:03;8.87;;;8.07;;
8088;SDS011;57635;49.194;12.104;2023-10-13T08:44:39;9.77;;;7.80;;
8088;SDS011;57635;49.194;12.104;2023-10-13T08:47:12;9.93;;;8.50;;
8088;SDS011;57635;49.194;12.104;2023-10-13T08:49:45;8.53;;;7.07;;
8088;SDS011;57635;49.194;12.104;2023-10-13T08:52:18;13.30;;;7.73;;
8088;SDS011;57635;49.194;12.104;2023-10-13T08:55:12;9.10;;;8.00;;
8088;SDS011;57635;49.194;12.104;2023-10-13T08:57:55;8.97;;;8.07;;
8088;SDS011;57635;49.194;12.104;2023-10-13T09:00:29;7.40;;;6.73;;
8088;SDS011;57635;49.194;12.104;2023-10-13T09:03:19;8.57;;;7.40;;
8088;SDS011;57635;49.194;12.104;2023-10-13T09:05:58;8.47;;;7.20;;
8088;SDS011;57635;49.194;12.104;2023-10-13T09:08:28;12.27;;;7.87;;
8088;SDS011;57635;49.194;12.104;2023-10-13T09:11:03;8.90;;;7.07;;
8088;SDS011;57635;49.194;12.104;2023-10-13T09:13:38;10.00;;;7.57;;
8088;SDS011;57635;49.194;12.104;2023-10-13T09:16:11;10.00;;;6.73;;
8088;SDS011;57635;49.194;12.104;2023-10-13T09:19:06;7.73;;;7.00;;
8088;SDS011;57635;49.194;12.104;2023-10-13T09:21:39;6.40;;;5.90;;
8088;SDS011;57635;49.194;12.104;2023-10-13T09:24:21;7.27;;;6.50;;
8088;SDS011;57635;49.194;12.104;2023-10-13T09:26:54;9.90;;;6.40;;
8088;SDS011;57635;49.194;12.104;2023-10-13T09:29:22;6.23;;;5.73;;
8088;SDS011;57635;49.194;12.104;2023-10-13T09:32:00;6.23;;;5.67;;
8088;SDS011;57635;49.194;12.104;2023-10-13T09:34:29;7.10;;;6.30;;
8088;SDS011;57635;49.194;12.104;2023-10-13T09:37:01;8.63;;;6.23;;
8088;SDS011;57635;49.194;12.104;2023-10-13T09:39:30;6.53;;;5.90;;
8088;SDS011;57635;49.194;12.104;2023-10-13T09:42:01;8.10;;;6.00;;
8088;SDS011;57635;49.194;12.104;2023-10-13T09:44:30;8.53;;;6.73;;
8088;SDS011;57635;49.194;12.104;2023-10-13T09:47:00;9.27;;;5.90;;
8088;SDS011;57635;49.194;12.104;2023-10-13T09:49:36;7.37;;;6.00;;
8088;SDS011;57635;49.194;12.104;2023-10-13T09:52:17;9.87;;;6.13;;
8088;SDS011;57635;49.194;12.104;2023-10-13T09:55:04;5.73;;;5.20;;
8088;SDS011;57635;49.194;12.104;2023-10-13T09:57:41;6.43;;;5.67;;
8088;SDS011;57635;49.194;12.104;2023-10-13T10:00:15;7.33;;;6.30;;
8088;SDS011;57635;49.194;12.104;2023-10-13T10:03:05;6.47;;;5.87;;
8088;SDS011;57635;49.194;12.104;2023-10-13T10:05:42;8.57;;;6.77;;
8088;SDS011;57635;49.194;12.104;2023-10-13T10:08:24;6.57;;;5.97;;
8088;SDS011;57635;49.194;12.104;2023-10-13T10:11:01;7.00;;;6.30;;
8088;SDS011;57635;49.194;12.104;2023-10-13T10:13:35;7.90;;;5.30;;
8088;SDS011;57635;49.194;12.104;2023-10-13T10:16:08;6.70;;;5.87;;
8088;SDS011;57635;49.194;12.104;2023-10-13T10:18:41;7.87;;;5.73;;
8088;SDS011;57635;49.194;12.104;2023-10-13T10:21:07;6.40;;;5.20;;
8088;SDS011;57635;49.194;12.104;2023-10-13T10:23:38;7.03;;;5.13;;
8088;SDS011;57635;49.194;12.104;2023-10-13T10:26:09;6.70;;;5.60;;
8088;SDS011;57635;49.194;12.104;2023-10-13T10:28:41;6.30;;;5.47;;
8088;SDS011;57635;49.194;12.104;2023-10-13T10:31:10;5.83;;;5.23;;
8088;SDS011;57635;49.194;12.104;2023-10-13T10:33:41;9.50;;;5.53;;
8088;SDS011;57635;49.194;12.104;2023-10-13T10:36:09;6.50;;;5.27;;
8088;SDS011;57635;49.194;12.104;2023-10-13T10:38:54;9.03;;;5.80;;
8088;SDS011;57635;49.194;12.104;2023-10-13T10:41:25;6.13;;;4.97;;
8088;SDS011;57635;49.194;12.104;2023-10-13T10:44:11;5.53;;;5.03;;
8088;SDS011;57635;49.194;12.104;2023-10-13T10:46:44;7.63;;;5.17;;
8088;SDS011;57635;49.194;12.104;2023-10-13T10:49:26;8.03;;;5.67;;
8088;SDS011;57635;49.194;12.104;2023-10-13T10:51:57;6.43;;;5.53;;
8088;SDS011;57635;49.194;12.104;2023-10-13T10:54:32;7.80;;;5.87;;
8088;SDS011;57635;49.194;12.104;2023-10-13T10:57:00;8.50;;;5.60;;
8088;SDS011;57635;49.194;12.104;2023-10-13T10:59:38;6.40;;;5.03;;
8088;SDS011;57635;49.194;12.104;2023-10-13T11:02:06;4.70;;;4.30;;
8088;SDS011;57635;49.194;12.104;2023-10-13T11:04:35;6.37;;;5.10;;
8088;SDS011;57635;49.194;12.104;2023-10-13T11:07:07;6.57;;;4.93;;
8088;SDS011;57635;49.194;12.104;2023-10-13T11:09:37;6.07;;;4.53;;
8088;SDS011;57635;49.194;12.104;2023-10-13T11:12:12;7.80;;;5.03;;
8088;SDS011;57635;49.194;12.104;2023-10-13T11:14:59;5.37;;;4.17;;
8088;SDS011;57635;49.194;12.104;2023-10-13T11:17:28;8.17;;;4.70;;
8088;SDS011;57635;49.194;12.104;2023-10-13T11:20:08;5.00;;;4.60;;
8088;SDS011;57635;49.194;12.104;2023-10-13T11:22:46;5.07;;;3.97;;
8088;SDS011;57635;49.194;12.104;2023-10-13T11:25:23;5.23;;;4.37;;
8088;SDS011;57635;49.194;12.104;2023-10-13T11:27:57;5.13;;;4.37;;
8088;SDS011;57635;49.194;12.104;2023-10-13T11:30:26;3.83;;;3.23;;
8088;SDS011;57635;49.194;12.104;2023-10-13T11:33:07;5.97;;;3.93;;
8088;SDS011;57635;49.194;12.104;2023-10-13T11:35:36;9.27;;;3.83;;
8088;SDS011;57635;49.194;12.104;2023-10-13T11:38:22;9.03;;;3.50;;
8088;SDS011;57635;49.194;12.104;2023-10-13T11:40:56;3.80;;;3.50;;
8088;SDS011;57635;49.194;12.104;2023-10-13T11:43:38;5.53;;;4.00;;
8088;SDS011;57635;49.194;12.104;2023-10-13T11:46:32;4.13;;;3.70;;
8088;SDS011;57635;49.194;12.104;2023-10-13T11:49:22;6.80;;;4.07;;
8088;SDS011;57635;49.194;12.104;2023-10-13T11:52:00;4.87;;;3.57;;
8088;SDS011;57635;49.194;12.104;2023-10-13T11:54:46;6.50;;;3.93;;
8088;SDS011;57635;49.194;12.104;2023-10-13T11:57:15;6.53;;;4.50;;
8088;SDS011;57635;49.194;12.104;2023-10-13T11:59:45;4.80;;;4.20;;
8088;SDS011;57635;49.194;12.104;2023-10-13T12:02:22;5.77;;;4.27;;
8088;SDS011;57635;49.194;12.104;2023-10-13T12:05:07;4.13;;;3.37;;
8088;SDS011;57635;49.194;12.104;2023-10-13T12:07:44;5.23;;;3.77;;
8088;SDS011;57635;49.194;12.104;2023-10-13T12:10:15;5.37;;;3.43;;
8088;SDS011;57635;49.194;12.104;2023-10-13T12:13:01;5.03;;;3.20;;
8088;SDS011;57635;49.194;12.104;2023-10-13T12:15:34;7.20;;;3.53;;
8088;SDS011;57635;49.194;12.104;2023-10-13T12:18:15;8.37;;;3.77;;
8088;SDS011;57635;49.194;12.104;2023-10-13T12:20:45;3.43;;;3.17;;
8088;SDS011;57635;49.194;12.104;2023-10-13T12:23:13;5.40;;;3.90;;
8088;SDS011;57635;49.194;12.104;2023-10-13T12:25:46;5.60;;;3.83;;
8088;SDS011;57635;49.194;12.104;2023-10-13T12:28:34;5.70;;;3.97;;
8088;SDS011;57635;49.194;12.104;2023-10-13T12:31:07;4.33;;;3.90;;
8088;SDS011;57635;49.194;12.104;2023-10-13T12:33:38;6.87;;;4.07;;
8088;SDS011;57635;49.194;12.104;2023-10-13T12:36:07;8.40;;;5.50;;
8088;SDS011;57635;49.194;12.104;2023-10-13T12:38:41;6.20;;;3.33;;
8088;SDS011;57635;49.194;12.104;2023-10-13T12:41:38;7.83;;;3.57;;
8088;SDS011;57635;49.194;12.104;2023-10-13T12:44:24;4.07;;;3.67;;
8088;SDS011;57635;49.194;12.104;2023-10-13T12:47:11;5.87;;;3.57;;
8088;SDS011;57635;49.194;12.104;2023-10-13T12:49:56;3.60;;;3.30;;
8088;SDS011;57635;49.194;12.104;2023-10-13T12:52:34;6.63;;;3.53;;
8088;SDS011;57635;49.194;12.104;2023-10-13T12:55:02;4.90;;;3.27;;
8088;SDS011;57635;49.194;12.104;2023-10-13T12:57:36;4.63;;;3.77;;
8088;SDS011;57635;49.194;12.104;2023-10-13T13:00:14;4.03;;;3.37;;
8088;SDS011;57635;49.194;12.104;2023-10-13T13:02:51;4.90;;;3.63;;
8088;SDS011;57635;49.194;12.104;2023-10-13T13:05:23;4.53;;;4.13;;
8088;SDS011;57635;49.194;12.104;2023-10-13T13:07:55;5.23;;;3.47;;
8088;SDS011;57635;49.194;12.104;2023-10-13T13:10:23;3.30;;;3.00;;
8088;SDS011;57635;49.194;12.104;2023-10-13T13:13:04;4.60;;;2.87;;
8088;SDS011;57635;49.194;12.104;2023-10-13T13:15:33;5.20;;;3.30;;
8088;SDS011;57635;49.194;12.104;2023-10-13T13:18:01;3.20;;;2.90;;
8088;SDS011;57635;49.194;12.104;2023-10-13T13:20:37;7.20;;;3.73;;
8088;SDS011;57635;49.194;12.104;2023-10-13T13:23:11;6.37;;;3.07;;
8088;SDS011;57635;49.194;12.104;2023-10-13T13:25:41;7.70;;;3.23;;
8088;SDS011;57635;49.194;12.104;2023-10-13T13:28:09;9.53;;;4.10;;
8088;SDS011;57635;49.194;12.104;2023-10-13T13:30:39;3.80;;;3.50;;
8088;SDS011;57635;49.194;12.104;2023-10-13T13:33:08;8.47;;;4.10;;
8088;SDS011;57635;49.194;12.104;2023-10-13T13:35:38;6.60;;;3.23;;
8088;SDS011;57635;49.194;12.104;2023-10-13T13:38:09;12.63;;;5.03;;
8088;SDS011;57635;49.194;12.104;2023-10-13T13:40:48;3.33;;;3.00;;
8088;SDS011;57635;49.194;12.104;2023-10-13T13:43:20;6.03;;;4.10;;
8088;SDS011;57635;49.194;12.104;2023-10-13T13:46:05;6.23;;;3.27;;
8088;SDS011;57635;49.194;12.104;2023-10-13T13:48:36;5.93;;;4.60;;
8088;SDS011;57635;49.194;12.104;2023-10-13T13:51:05;4.73;;;3.83;;
8088;SDS011;57635;49.194;12.104;2023-10-13T13:53:40;6.20;;;4.00;;
8088;SDS011;57635;49.194;12.104;2023-10-13T13:56:12;5.37;;;3.87;;
8088;SDS011;57635;49.194;12.104;2023-10-13T13:58:42;7.20;;;3.60;;
8088;SDS011;57635;49.194;12.104;2023-10-13T14:01:11;7.00;;;3.60;;
8088;SDS011;57635;49.194;12.104;2023-10-13T14:03:41;6.53;;;3.50;;
8088;SDS011;57635;49.194;12.104;2023-10-13T14:06:17;6.63;;;3.90;;
8088;SDS011;57635;49.194;12.104;2023-10-13T14:08:47;8.83;;;4.10;;
8088;SDS011;57635;49.194;12.104;2023-10-13T14:11:17;7.97;;;4.97;;
8088;SDS011;57635;49.194;12.104;2023-10-13T14:14:11;5.97;;;3.60;;
8088;SDS011;57635;49.194;12.104;2023-10-13T14:16:39;4.80;;;4.03;;
8088;SDS011;57635;49.194;12.104;2023-10-13T14:19:11;9.40;;;3.97;;
8088;SDS011;57635;49.194;12.104;2023-10-13T14:21:39;8.73;;;3.80;;
8088;SDS011;57635;49.194;12.104;2023-10-13T14:24:07;6.37;;;4.10;;
8088;SDS011;57635;49.194;12.104;2023-10-13T14:26:43;6.40;;;4.07;;
8088;SDS011;57635;49.194;12.104;2023-10-13T14:29:11;5.07;;;3.50;;
8088;SDS011;57635;49.194;12.104;2023-10-13T14:31:41;5.50;;;4.67;;
8088;SDS011;57635;49.194;12.104;2023-10-13T14:34:10;4.37;;;3.70;;
8088;SDS011;57635;49.194;12.104;2023-10-13T14:36:38;5.83;;;3.63;;
8088;SDS011;57635;49.194;12.104;2023-10-13T14:39:06;5.47;;;3.70;;
8088;SDS011;57635;49.194;12.104;2023-10-13T14:41:35;7.30;;;3.53;;
8088;SDS011;57635;49.194;12.104;2023-10-13T14:44:04;6.07;;;4.03;;
8088;SDS011;57635;49.194;12.104;2023-10-13T14:46:33;5.67;;;3.37;;
8088;SDS011;57635;49.194;12.104;2023-10-13T14:49:03;6.43;;;3.60;;
8088;SDS011;57635;49.194;12.104;2023-10-13T14:51:31;5.07;;;3.67;;
8088;SDS011;57635;49.194;12.104;2023-10-13T14:53:59;4.70;;;3.17;;
8088;SDS011;57635;49.194;12.104;2023-10-13T14:56:27;5.23;;;3.73;;
8088;SDS011;57635;49.194;12.104;2023-10-13T14:58:55;5.97;;;3.33;;
8088;SDS011;57635;49.194;12.104;2023-10-13T15:01:23;9.20;;;3.30;;
8088;SDS011;57635;49.194;12.104;2023-10-13T15:03:53;4.83;;;3.20;;
8088;SDS011;57635;49.194;12.104;2023-10-13T15:06:24;7.10;;;3.70;;
8088;SDS011;57635;49.194;12.104;2023-10-13T15:08:55;6.00;;;3.53;;
8088;SDS011;57635;49.194;12.104;2023-10-13T15:11:25;3.93;;;3.00;;
8088;SDS011;57635;49.194;12.104;2023-10-13T15:13:54;4.20;;;2.87;;
8088;SDS011;57635;49.194;12.104;2023-10-13T15:16:23;8.40;;;3.37;;
8088;SDS011;57635;49.194;12.104;2023-10-13T15:18:53;4.07;;;3.57;;
8088;SDS011;57635;49.194;12.104;2023-10-13T15:21:21;5.77;;;2.87;;